createdAt,value
2018-09-30T00:01:35.598Z,7.60
2018-09-30T00:04:04.748Z,7.93
2018-09-30T00:06:33.947Z,6.23
2018-09-30T00:09:03.011Z,10.87
2018-09-30T00:11:32.006Z,10.27
2018-09-30T00:14:01.231Z,6.77
2018-09-30T00:16:30.222Z,5.63
2018-09-30T00:18:59.270Z,5.57
2018-09-30T00:21:28.281Z,8.23
2018-09-30T00:24:02.702Z,9.30
2018-09-30T00:26:37.059Z,8.60
2018-09-30T00:29:06.127Z,9.17
2018-09-30T00:31:35.265Z,9.73
2018-09-30T00:34:09.457Z,10.50
2018-09-30T00:36:38.686Z,12.23
2018-09-30T00:39:07.867Z,7.43
2018-09-30T00:41:37.069Z,9.83
2018-09-30T00:44:06.342Z,6.07
2018-09-30T00:46:35.523Z,6.47
2018-09-30T00:49:04.792Z,7.17
2018-09-30T00:51:33.778Z,9.70
2018-09-30T00:54:03.031Z,6.77
2018-09-30T00:56:32.109Z,4.27
2018-09-30T00:59:01.121Z,5.87
2018-09-30T01:01:30.155Z,10.27
2018-09-30T01:03:59.456Z,10.10
2018-09-30T01:06:28.695Z,9.07
2018-09-30T01:08:57.690Z,6.27
2018-09-30T01:11:26.988Z,6.47
2018-09-30T01:13:56.143Z,9.20
2018-09-30T01:16:25.166Z,11.00
2018-09-30T01:18:54.222Z,8.57
2018-09-30T01:21:23.596Z,6.27
2018-09-30T01:23:52.635Z,6.40
2018-09-30T01:26:21.641Z,8.33
2018-09-30T01:28:50.657Z,16.53
2018-09-30T01:31:19.775Z,14.30
2018-09-30T01:33:48.837Z,9.97
2018-09-30T01:36:17.834Z,5.83
2018-09-30T01:38:47.027Z,7.53
2018-09-30T01:41:16.058Z,8.30
2018-09-30T01:43:45.077Z,7.67
2018-09-30T01:46:14.063Z,7.23
2018-09-30T01:48:43.242Z,7.83
2018-09-30T01:51:12.279Z,7.57
2018-09-30T01:53:41.280Z,7.20
2018-09-30T01:56:10.261Z,8.00
2018-09-30T01:58:39.289Z,7.60
2018-09-30T02:01:08.293Z,8.80
2018-09-30T02:03:37.352Z,5.53
2018-09-30T02:06:06.032Z,7.57
2018-09-30T02:08:35.150Z,8.27
2018-09-30T02:11:04.188Z,8.40
2018-09-30T02:13:33.164Z,8.57
2018-09-30T02:16:02.246Z,6.90
2018-09-30T02:18:31.255Z,9.93
2018-09-30T02:21:00.250Z,5.67
2018-09-30T02:23:29.223Z,7.30
2018-09-30T02:25:58.222Z,11.53
2018-09-30T02:28:27.622Z,7.87
2018-09-30T02:30:56.604Z,5.30
2018-09-30T02:33:25.583Z,5.73
2018-09-30T02:35:54.561Z,9.53
2018-09-30T02:38:23.546Z,4.40
2018-09-30T02:40:52.522Z,6.97
2018-09-30T02:43:21.509Z,8.23
2018-09-30T02:45:50.497Z,6.43
2018-09-30T02:48:19.686Z,6.70
2018-09-30T02:50:48.882Z,6.53
2018-09-30T02:53:17.858Z,6.10
2018-09-30T02:55:46.836Z,8.43
2018-09-30T02:58:15.802Z,12.13
2018-09-30T03:00:44.777Z,7.60
2018-09-30T03:03:13.902Z,5.60
2018-09-30T03:05:43.151Z,10.00
2018-09-30T03:08:17.460Z,7.30
2018-09-30T03:10:46.635Z,9.80
2018-09-30T03:13:15.598Z,6.63
2018-09-30T03:15:44.776Z,9.00
2018-09-30T03:18:13.777Z,11.80
2018-09-30T03:20:43.075Z,5.83
2018-09-30T03:23:12.041Z,8.17
2018-09-30T03:25:41.026Z,12.23
2018-09-30T03:28:10.011Z,9.20
2018-09-30T03:30:39.103Z,7.47
2018-09-30T03:33:08.073Z,5.13
2018-09-30T03:35:37.037Z,10.83
2018-09-30T03:38:06.056Z,9.70
2018-09-30T03:40:35.029Z,7.80
2018-09-30T03:43:04.047Z,7.10
2018-09-30T03:45:33.047Z,6.87
2018-09-30T03:48:02.246Z,6.63
2018-09-30T03:50:31.247Z,7.30
2018-09-30T03:53:00.227Z,8.40
2018-09-30T03:55:29.567Z,6.03
2018-09-30T03:57:58.519Z,8.70
2018-09-30T04:00:27.722Z,6.70
2018-09-30T04:02:56.748Z,5.90
2018-09-30T04:05:32.482Z,8.07
2018-09-30T04:08:01.518Z,7.37
2018-09-30T04:10:30.515Z,5.43
2018-09-30T04:12:59.550Z,8.83
2018-09-30T04:15:28.978Z,7.63
2018-09-30T04:17:57.997Z,5.90
2018-09-30T04:20:26.978Z,6.13
2018-09-30T04:22:55.946Z,5.03
2018-09-30T04:25:24.928Z,6.07
2018-09-30T04:27:53.921Z,6.50
2018-09-30T04:30:22.931Z,5.63
2018-09-30T04:32:51.922Z,6.63
2018-09-30T04:35:21.193Z,6.60
2018-09-30T04:37:50.165Z,7.80
2018-09-30T04:40:19.129Z,6.47
2018-09-30T04:42:48.316Z,6.23
2018-09-30T04:45:17.605Z,8.87
2018-09-30T04:47:46.600Z,4.87
2018-09-30T04:50:15.584Z,9.53
2018-09-30T04:52:44.573Z,7.87
2018-09-30T04:55:13.531Z,6.70
2018-09-30T04:57:42.726Z,8.93
2018-09-30T05:00:11.759Z,6.90
2018-09-30T05:02:40.861Z,6.80
2018-09-30T05:05:09.892Z,8.07
2018-09-30T05:07:38.937Z,8.50
2018-09-30T05:10:08.123Z,7.90
2018-09-30T05:12:37.088Z,6.67
2018-09-30T05:15:06.042Z,7.57
2018-09-30T05:17:35.005Z,7.77
2018-09-30T05:20:04.055Z,10.43
2018-09-30T05:22:33.166Z,5.93
2018-09-30T05:25:02.601Z,6.27
2018-09-30T05:27:32.013Z,6.90
2018-09-30T05:30:01.042Z,7.50
2018-09-30T05:32:30.149Z,10.33
2018-09-30T05:34:59.308Z,5.73
2018-09-30T05:37:28.370Z,7.20
2018-09-30T05:39:57.412Z,7.83
2018-09-30T05:42:26.661Z,5.70
2018-09-30T05:44:55.933Z,8.23
2018-09-30T05:47:25.383Z,5.70
2018-09-30T05:49:54.383Z,7.60
2018-09-30T05:52:23.639Z,9.90
2018-09-30T05:54:52.947Z,8.53
2018-09-30T05:57:22.088Z,7.47
2018-09-30T05:59:51.085Z,9.13
2018-09-30T06:02:20.064Z,6.53
2018-09-30T06:04:49.150Z,5.60
2018-09-30T06:07:18.146Z,6.33
2018-09-30T06:09:47.156Z,7.80
2018-09-30T06:12:16.447Z,10.50
2018-09-30T06:14:45.635Z,7.90
2018-09-30T06:17:15.030Z,8.23
2018-09-30T06:19:44.066Z,7.47
2018-09-30T06:22:13.168Z,6.30
2018-09-30T06:24:42.298Z,7.40
2018-09-30T06:27:11.340Z,8.80
2018-09-30T06:29:40.664Z,5.73
2018-09-30T06:32:09.719Z,11.70
2018-09-30T06:34:38.611Z,7.13
2018-09-30T06:37:07.746Z,7.37
2018-09-30T06:39:36.806Z,7.13
2018-09-30T06:42:06.321Z,7.87
2018-09-30T06:44:35.500Z,6.77
2018-09-30T06:47:04.754Z,9.53
2018-09-30T06:49:33.868Z,7.37
2018-09-30T06:52:03.016Z,7.90
2018-09-30T06:54:32.308Z,7.17
2018-09-30T06:57:01.297Z,8.73
2018-09-30T06:59:30.336Z,7.17
2018-09-30T07:01:59.372Z,7.00
2018-09-30T07:04:28.703Z,10.37
2018-09-30T07:06:57.713Z,5.50
2018-09-30T07:09:26.742Z,5.63
2018-09-30T07:11:55.717Z,7.67
2018-09-30T07:14:24.796Z,7.67
2018-09-30T07:16:53.871Z,8.93
2018-09-30T07:19:22.776Z,8.67
2018-09-30T07:21:51.763Z,7.57
2018-09-30T07:24:21.015Z,10.47
2018-09-30T07:26:50.262Z,8.67
2018-09-30T07:29:19.275Z,7.70
2018-09-30T07:31:48.258Z,6.23
2018-09-30T07:34:17.477Z,11.63
2018-09-30T07:36:46.525Z,7.20
2018-09-30T07:39:15.560Z,7.53
2018-09-30T07:41:44.555Z,7.50
2018-09-30T07:44:13.587Z,7.00
2018-09-30T07:46:42.649Z,8.67
2018-09-30T07:49:11.975Z,7.43
2018-09-30T07:51:41.390Z,6.23
2018-09-30T07:54:10.678Z,10.17
2018-09-30T07:56:39.874Z,8.67
2018-09-30T07:59:09.188Z,10.83
2018-09-30T08:01:38.235Z,7.53
2018-09-30T08:04:07.757Z,6.63
2018-09-30T08:06:36.793Z,7.70
2018-09-30T08:09:07.943Z,6.57
2018-09-30T08:11:37.163Z,5.90
2018-09-30T08:14:06.282Z,6.47
2018-09-30T08:16:35.333Z,9.53
2018-09-30T08:19:04.328Z,7.87
2018-09-30T08:21:33.341Z,7.47
2018-09-30T08:24:02.534Z,6.00
2018-09-30T08:26:31.603Z,5.93
2018-09-30T08:29:00.599Z,7.27
2018-09-30T08:31:29.931Z,6.30
2018-09-30T08:33:59.576Z,9.57
2018-09-30T08:36:28.929Z,7.80
2018-09-30T08:38:57.981Z,6.70
2018-09-30T08:41:27.213Z,6.50
2018-09-30T08:43:56.366Z,9.13
2018-09-30T08:46:25.522Z,8.57
2018-09-30T08:48:54.513Z,7.10
2018-09-30T08:51:23.638Z,8.50
2018-09-30T08:53:52.753Z,6.33
2018-09-30T08:56:22.011Z,10.10
2018-09-30T08:58:51.349Z,6.80
2018-09-30T09:01:20.630Z,6.37
2018-09-30T09:03:49.732Z,10.37
2018-09-30T09:06:18.770Z,5.13
2018-09-30T09:08:47.967Z,5.10
2018-09-30T09:11:17.294Z,4.93
2018-09-30T09:13:46.296Z,4.57
2018-09-30T09:16:15.447Z,7.17
2018-09-30T09:18:44.654Z,7.30
2018-09-30T09:21:13.819Z,7.70
2018-09-30T09:23:43.107Z,5.43
2018-09-30T09:26:12.098Z,4.93
2018-09-30T09:28:41.093Z,5.90
2018-09-30T09:31:10.230Z,5.03
2018-09-30T09:33:39.525Z,5.20
2018-09-30T09:36:08.545Z,6.37
2018-09-30T09:38:37.548Z,8.53
2018-09-30T09:41:06.874Z,6.10
2018-09-30T09:43:35.900Z,5.87
2018-09-30T09:46:04.899Z,6.90
2018-09-30T09:48:34.176Z,9.03
2018-09-30T09:51:03.428Z,5.03
2018-09-30T09:53:32.570Z,8.07
2018-09-30T09:56:02.160Z,5.57
2018-09-30T09:58:31.383Z,5.47
2018-09-30T10:01:05.030Z,5.23
2018-09-30T10:03:34.083Z,4.93
2018-09-30T10:06:03.229Z,5.77
2018-09-30T10:08:32.328Z,6.37
2018-09-30T10:11:01.554Z,6.77
2018-09-30T10:13:30.951Z,4.97
2018-09-30T10:15:59.925Z,6.33
2018-09-30T10:18:28.947Z,5.70
2018-09-30T10:20:58.149Z,7.07
2018-09-30T10:23:27.242Z,4.53
2018-09-30T10:25:56.598Z,6.50
2018-09-30T10:28:26.326Z,6.37
2018-09-30T10:30:55.381Z,8.37
2018-09-30T10:33:24.367Z,5.13
2018-09-30T10:35:53.397Z,7.77
2018-09-30T10:38:22.439Z,6.00
2018-09-30T10:40:51.481Z,7.40
2018-09-30T10:43:20.813Z,4.73
2018-09-30T10:45:50.789Z,7.23
2018-09-30T10:48:19.792Z,8.17
2018-09-30T10:50:49.199Z,4.93
2018-09-30T10:53:18.320Z,6.70
2018-09-30T10:55:47.354Z,9.53
2018-09-30T10:58:16.542Z,4.30
2018-09-30T11:00:45.617Z,9.20
2018-09-30T11:03:14.800Z,6.63
2018-09-30T11:05:43.830Z,7.13
2018-09-30T11:08:12.817Z,7.77
2018-09-30T11:10:41.819Z,4.87
2018-09-30T11:13:10.798Z,4.37
2018-09-30T11:15:39.814Z,6.77
2018-09-30T11:18:08.822Z,7.07
2018-09-30T11:20:37.857Z,4.93
2018-09-30T11:23:07.344Z,7.33
2018-09-30T11:25:36.363Z,4.03
2018-09-30T11:28:05.395Z,3.97
2018-09-30T11:30:34.722Z,3.80
2018-09-30T11:33:03.794Z,6.00
2018-09-30T11:35:33.056Z,6.13
2018-09-30T11:38:02.051Z,5.27
2018-09-30T11:40:31.066Z,6.57
2018-09-30T11:43:00.577Z,5.90
2018-09-30T11:45:29.584Z,7.73
2018-09-30T11:47:59.355Z,5.97
2018-09-30T11:50:29.049Z,5.23
2018-09-30T11:52:58.795Z,6.77
2018-09-30T11:55:28.509Z,5.53
2018-09-30T11:57:58.317Z,4.43
2018-09-30T12:00:28.610Z,3.90
2018-09-30T12:02:58.136Z,8.17
2018-09-30T12:05:27.650Z,4.40
2018-09-30T12:07:57.865Z,3.87
2018-09-30T12:10:27.694Z,8.30
2018-09-30T12:12:57.135Z,6.53
2018-09-30T12:15:26.234Z,3.77
2018-09-30T12:17:55.378Z,3.07
2018-09-30T12:20:24.380Z,4.90
2018-09-30T12:22:55.031Z,4.70
2018-09-30T12:25:24.296Z,5.33
2018-09-30T12:27:53.482Z,7.30
2018-09-30T12:30:25.442Z,3.87
2018-09-30T12:32:54.490Z,3.07
2018-09-30T12:35:23.573Z,4.03
2018-09-30T12:37:52.887Z,4.93
2018-09-30T12:40:21.865Z,4.37
2018-09-30T12:42:50.855Z,6.23
2018-09-30T12:45:20.175Z,3.80
2018-09-30T12:47:49.747Z,5.17
2018-09-30T12:50:19.545Z,6.03
2018-09-30T12:52:49.002Z,5.90
2018-09-30T12:55:18.360Z,6.03
2018-09-30T12:57:47.688Z,7.60
2018-09-30T13:00:17.670Z,4.00
2018-09-30T13:02:47.138Z,4.47
2018-09-30T13:05:16.440Z,7.23
2018-09-30T13:07:45.478Z,4.53
2018-09-30T13:10:14.539Z,7.63
2018-09-30T13:12:43.509Z,5.47
2018-09-30T13:15:12.716Z,3.57
2018-09-30T13:17:41.829Z,4.57
2018-09-30T13:20:10.823Z,5.47
2018-09-30T13:22:39.795Z,5.00
2018-09-30T13:25:08.752Z,5.40
2018-09-30T13:27:37.731Z,4.43
2018-09-30T13:30:06.972Z,5.70
2018-09-30T13:32:35.965Z,6.83
2018-09-30T13:35:05.291Z,5.90
2018-09-30T13:37:34.368Z,5.83
2018-09-30T13:40:03.411Z,5.23
2018-09-30T13:42:32.327Z,10.53
2018-09-30T13:45:01.484Z,5.53
2018-09-30T13:47:30.517Z,5.47
2018-09-30T13:49:59.596Z,34.23
2018-09-30T13:52:28.642Z,5.47
2018-09-30T13:54:58.239Z,7.03
2018-09-30T13:57:27.561Z,5.73
2018-09-30T13:59:57.006Z,5.73
2018-09-30T14:02:25.981Z,4.13
2018-09-30T14:04:54.946Z,4.27
2018-09-30T14:07:23.908Z,4.07
2018-09-30T14:09:52.897Z,4.63
2018-09-30T14:12:22.138Z,6.63
2018-09-30T14:14:51.426Z,3.47
2018-09-30T14:17:20.823Z,6.23
2018-09-30T14:19:49.842Z,4.87
2018-09-30T14:22:18.978Z,4.80
2018-09-30T14:24:48.002Z,4.57
2018-09-30T14:27:17.111Z,3.20
2018-09-30T14:29:46.043Z,3.70
2018-09-30T14:32:15.323Z,3.47
2018-09-30T14:34:44.555Z,4.77
2018-09-30T14:37:13.546Z,7.37
2018-09-30T14:39:44.282Z,4.23
2018-09-30T14:42:14.613Z,9.37
2018-09-30T14:44:44.077Z,5.50
2018-09-30T14:47:13.788Z,4.57
2018-09-30T14:49:43.252Z,3.90
2018-09-30T14:52:12.993Z,8.57
2018-09-30T14:54:43.657Z,7.53
2018-09-30T14:57:13.885Z,2.87
2018-09-30T14:59:44.171Z,5.53
2018-09-30T15:02:13.588Z,4.87
2018-09-30T15:04:43.499Z,5.90
2018-09-30T15:07:13.151Z,5.10
2018-09-30T15:09:43.886Z,4.20
2018-09-30T15:12:14.317Z,3.43
2018-09-30T15:14:44.386Z,5.13
2018-09-30T15:17:14.330Z,4.40
2018-09-30T15:19:44.886Z,4.40
2018-09-30T15:22:14.046Z,3.10
2018-09-30T15:24:43.278Z,3.97
2018-09-30T15:27:12.355Z,4.53
2018-09-30T15:29:41.577Z,7.23
2018-09-30T15:32:10.576Z,5.00
2018-09-30T15:34:39.589Z,5.17
2018-09-30T15:37:08.855Z,5.53
2018-09-30T15:39:37.846Z,6.27
2018-09-30T15:42:06.826Z,3.83
2018-09-30T15:44:35.876Z,4.80
2018-09-30T15:47:04.876Z,4.30
2018-09-30T15:49:33.883Z,4.63
2018-09-30T15:52:02.882Z,4.70
2018-09-30T15:54:31.972Z,4.40
2018-09-30T15:57:00.963Z,5.33
2018-09-30T15:59:29.978Z,6.53
2018-09-30T16:01:59.027Z,8.33
2018-09-30T16:04:28.051Z,6.93
2018-09-30T16:06:57.442Z,3.70
2018-09-30T16:09:26.882Z,6.80
2018-09-30T16:11:56.281Z,3.63
2018-09-30T16:17:04.553Z,5.30
2018-09-30T16:19:33.725Z,6.23
2018-09-30T16:22:02.728Z,5.27
2018-09-30T16:24:32.866Z,8.17
2018-09-30T16:27:02.767Z,4.67
2018-09-30T16:29:32.192Z,9.60
2018-09-30T16:32:01.551Z,5.33
2018-09-30T16:34:30.830Z,5.70
2018-09-30T16:37:00.235Z,5.37
2018-09-30T16:39:30.179Z,3.57
2018-09-30T16:42:01.859Z,4.70
2018-09-30T16:44:31.245Z,6.60
2018-09-30T16:47:00.473Z,7.70
2018-09-30T16:49:29.833Z,6.27
2018-09-30T16:51:58.962Z,25.47
2018-09-30T16:54:28.351Z,8.93
2018-09-30T16:56:57.474Z,8.43
2018-09-30T16:59:26.877Z,6.57
2018-09-30T17:01:56.033Z,9.50
2018-09-30T17:04:25.080Z,10.93
2018-09-30T17:06:54.265Z,7.97
2018-09-30T17:09:23.789Z,6.87
2018-09-30T17:11:52.855Z,9.57
2018-09-30T17:14:22.274Z,16.23
2018-09-30T17:16:51.485Z,8.97
2018-09-30T17:19:20.473Z,9.43
2018-09-30T17:21:49.846Z,14.73
2018-09-30T17:24:18.827Z,10.93
2018-09-30T17:26:47.857Z,21.90
2018-09-30T17:29:17.007Z,17.87
2018-09-30T17:31:46.228Z,11.80
2018-09-30T17:34:15.238Z,15.87
2018-09-30T17:36:44.269Z,11.77
2018-09-30T17:39:13.285Z,10.63
2018-09-30T17:41:42.359Z,11.23
2018-09-30T17:44:11.404Z,11.00
2018-09-30T17:46:40.391Z,9.23
2018-09-30T17:49:09.637Z,10.50
2018-09-30T17:51:38.757Z,29.57
2018-09-30T17:54:08.841Z,10.87
2018-09-30T17:56:38.742Z,14.00
2018-09-30T17:59:08.393Z,16.93
2018-09-30T18:01:37.662Z,19.27
2018-09-30T18:04:08.493Z,13.27
2018-09-30T18:06:37.667Z,15.37
2018-09-30T18:09:10.159Z,16.13
2018-09-30T18:11:39.353Z,28.93
2018-09-30T18:14:08.356Z,16.43
2018-09-30T18:16:37.493Z,13.40
2018-09-30T18:19:06.517Z,9.47
2018-09-30T18:21:35.669Z,10.33
2018-09-30T18:24:05.168Z,12.17
2018-09-30T18:26:34.221Z,9.23
2018-09-30T18:29:03.445Z,11.20
2018-09-30T18:31:32.500Z,12.87
2018-09-30T18:34:02.345Z,12.50
2018-09-30T18:36:31.552Z,12.03
2018-09-30T18:39:00.797Z,12.00
2018-09-30T18:41:30.260Z,12.50
2018-09-30T18:43:59.573Z,11.57
2018-09-30T18:46:29.039Z,11.40
2018-09-30T18:48:58.337Z,12.10
2018-09-30T18:51:28.062Z,16.60
2018-09-30T18:53:57.429Z,14.73
2018-09-30T18:56:26.831Z,18.77
2018-09-30T18:58:56.012Z,14.93
2018-09-30T19:01:25.335Z,18.30
2018-09-30T19:03:54.498Z,20.73
2018-09-30T19:06:23.612Z,15.17
2018-09-30T19:08:52.695Z,16.33
2018-09-30T19:11:21.872Z,13.37
2018-09-30T19:13:51.080Z,19.20
2018-09-30T19:16:20.306Z,19.07
2018-09-30T19:18:49.414Z,44.63
2018-09-30T19:21:18.786Z,22.67
2018-09-30T19:23:47.803Z,22.97
2018-09-30T19:26:16.811Z,18.83
2018-09-30T19:28:45.895Z,22.50
2018-09-30T19:31:15.308Z,25.63
2018-09-30T19:33:44.640Z,17.77
2018-09-30T19:36:13.689Z,17.57
2018-09-30T19:38:43.009Z,24.00
2018-09-30T19:41:12.033Z,28.73
2018-09-30T19:43:41.025Z,33.30
2018-09-30T19:46:10.235Z,59.97
2018-09-30T19:48:39.336Z,81.00
2018-09-30T19:51:08.266Z,72.10
2018-09-30T19:53:37.485Z,34.10
2018-09-30T19:56:06.482Z,29.90
2018-09-30T19:58:35.526Z,29.13
2018-09-30T20:01:04.604Z,18.13
2018-09-30T20:03:33.578Z,21.17
2018-09-30T20:06:02.912Z,21.90
2018-09-30T20:08:32.695Z,17.50
2018-09-30T20:11:02.077Z,20.00
2018-09-30T20:13:31.339Z,17.67
2018-09-30T20:16:00.748Z,18.80
2018-09-30T20:18:29.896Z,16.23
2018-09-30T20:20:59.204Z,19.00
2018-09-30T20:23:28.124Z,15.23
2018-09-30T20:25:57.146Z,14.07
2018-09-30T20:28:26.294Z,17.27
2018-09-30T20:30:56.260Z,17.33
2018-09-30T20:33:25.308Z,15.37
2018-09-30T20:35:54.358Z,17.23
2018-09-30T20:38:25.454Z,17.97
2018-09-30T20:40:55.301Z,18.70
2018-09-30T20:43:24.637Z,17.83
2018-09-30T20:45:53.673Z,17.60
2018-09-30T20:48:23.043Z,21.53
2018-09-30T20:50:52.850Z,19.93
2018-09-30T20:53:22.459Z,20.67
2018-09-30T20:55:51.581Z,27.97
2018-09-30T20:58:21.610Z,36.77
2018-09-30T21:00:51.807Z,24.67
2018-09-30T21:03:22.410Z,26.30
2018-09-30T21:06:57.060Z,20.87
2018-09-30T21:09:26.588Z,21.60
2018-09-30T21:11:56.132Z,29.03
2018-09-30T21:14:25.180Z,16.20
2018-09-30T21:16:55.132Z,23.30
2018-09-30T21:19:25.626Z,20.33
2018-09-30T21:21:54.712Z,17.80
2018-09-30T21:24:24.592Z,21.97
2018-09-30T21:26:53.740Z,20.33
2018-09-30T21:29:22.831Z,24.70
2018-09-30T21:31:51.930Z,18.13
2018-09-30T21:34:21.765Z,21.93
2018-09-30T21:36:51.790Z,22.57
2018-09-30T21:39:21.516Z,39.73
2018-09-30T21:41:50.594Z,19.07
2018-09-30T21:44:20.187Z,22.07
2018-09-30T21:46:50.414Z,26.27
2018-09-30T21:49:19.483Z,19.27
2018-09-30T21:51:49.011Z,15.17
2018-09-30T21:54:19.960Z,13.80
2018-09-30T21:56:50.110Z,15.07
2018-09-30T21:59:20.035Z,17.07
2018-09-30T22:01:49.657Z,19.13
2018-09-30T22:04:18.576Z,14.63
2018-09-30T22:06:49.534Z,12.43
2018-09-30T22:09:18.814Z,17.70
2018-09-30T22:11:48.587Z,15.73
2018-09-30T22:14:24.459Z,13.50
2018-09-30T22:16:54.334Z,13.43
2018-09-30T22:19:24.356Z,15.77
2018-09-30T22:21:54.392Z,16.27
2018-09-30T22:24:24.407Z,20.13
2018-09-30T22:26:53.553Z,13.47
2018-09-30T22:29:22.565Z,16.03
2018-09-30T22:31:52.617Z,14.97
2018-09-30T22:34:22.816Z,16.93
2018-09-30T22:36:51.809Z,17.63
2018-09-30T22:39:22.327Z,12.60
2018-09-30T22:41:53.932Z,21.50
2018-09-30T22:44:24.380Z,21.63
2018-09-30T22:46:53.411Z,17.97
2018-09-30T22:49:23.112Z,16.67
2018-09-30T22:51:52.079Z,15.97
2018-09-30T22:54:21.982Z,19.90
2018-09-30T22:56:51.923Z,20.87
2018-09-30T22:59:21.223Z,22.17
2018-09-30T23:01:50.483Z,23.43
2018-09-30T23:04:19.491Z,22.97
2018-09-30T23:06:48.580Z,23.23
2018-09-30T23:09:17.924Z,22.97
2018-09-30T23:11:47.443Z,17.53
2018-09-30T23:14:16.427Z,18.00
2018-09-30T23:16:46.072Z,16.27
2018-09-30T23:19:15.485Z,12.53
2018-09-30T23:21:44.543Z,19.07
2018-09-30T23:24:13.507Z,19.20
2018-09-30T23:26:43.065Z,16.87
2018-09-30T23:29:12.345Z,15.30
2018-09-30T23:31:41.717Z,16.70
2018-09-30T23:34:10.697Z,18.43
2018-09-30T23:36:39.696Z,16.20
2018-09-30T23:39:11.025Z,19.07
2018-09-30T23:41:40.275Z,20.17
2018-09-30T23:44:09.882Z,17.03
2018-09-30T23:46:38.859Z,13.90
2018-09-30T23:49:07.874Z,15.03
2018-09-30T23:51:36.883Z,17.83
2018-09-30T23:54:05.923Z,20.23
2018-09-30T23:56:34.991Z,13.83
2018-09-30T23:59:03.995Z,19.03
